Time;durP1;ratioP1;P1;durP2;ratioP2;P2;SDS_P1;SDS_P2;PMS_P1;PMS_P2;Temp;Humidity;BMP_temperature;BMP_pressure;BME280_temperature;BME280_humidity;BME280_pressure;Samples;Min_cycle;Max_cycle;Signal;HPM_P1;HPM_P2
2022/09/15 00:02:18;;;;;;;5.07;1.63;;;17.00;99.90;;;;;;10328147;28;20050;-61
2022/09/15 00:07:20;;;;;;;7.05;1.75;;;17.00;99.90;;;;;;10342210;28;20137;-60
2022/09/15 00:12:21;;;;;;;13.63;2.63;;;16.90;99.90;;;;;;10329338;28;20096;-59
2022/09/15 00:17:23;;;;;;;9.38;2.13;;;17.00;99.90;;;;;;10310081;28;20575;-60
2022/09/15 00:22:25;;;;;;;5.45;1.88;;;16.90;99.90;;;;;;10327696;28;20073;-60
2022/09/15 00:27:26;;;;;;;7.90;1.95;;;16.80;99.90;;;;;;10328466;28;20088;-60
2022/09/15 00:32:29;;;;;;;7.43;2.35;;;16.80;99.90;;;;;;10319451;28;20090;-60
2022/09/15 00:37:30;;;;;;;10.57;2.53;;;16.80;99.90;;;;;;10322760;28;20651;-59
2022/09/15 00:42:32;;;;;;;8.57;2.72;;;16.80;99.90;;;;;;10326879;28;20101;-60
2022/09/15 00:47:38;;;;;;;11.95;3.08;;;16.80;99.90;;;;;;10332502;28;20117;-61
2022/09/15 00:52:46;;;;;;;9.90;2.58;;;16.90;99.90;;;;;;10323706;28;20050;-61
2022/09/15 00:58:16;;;;;;;12.50;2.03;;;16.80;99.90;;;;;;10339606;28;20500;-59
2022/09/15 01:03:18;;;;;;;9.60;2.65;;;16.80;99.90;;;;;;10295703;28;20041;-60
2022/09/15 01:08:50;;;;;;;7.22;1.77;;;16.80;99.90;;;;;;10319568;28;20113;-60
2022/09/15 01:13:52;;;;;;;10.02;1.95;;;16.70;99.90;;;;;;10328377;28;20403;-60
2022/09/15 01:19:00;;;;;;;7.72;1.75;;;16.70;99.90;;;;;;10342963;28;20109;-61
2022/09/15 01:24:32;;;;;;;9.60;1.95;;;16.60;99.90;;;;;;10323948;28;20572;-59
2022/09/15 01:29:56;;;;;;;8.57;1.63;;;16.50;99.90;;;;;;10331360;28;20412;-60
2022/09/15 01:35:31;;;;;;;7.95;1.83;;;16.40;99.90;;;;;;10334327;28;20148;-60
2022/09/15 01:40:59;;;;;;;9.07;1.80;;;16.30;99.90;;;;;;10318760;28;20140;-61
2022/09/15 01:46:01;;;;;;;;;;;16.30;99.90;;;;;;10333402;28;21126;-60
2022/09/15 01:51:05;;;;;;;15.95;2.65;;;16.20;99.90;;;;;;10334432;28;19961;-58
2022/09/15 01:56:10;;;;;;;12.77;3.08;;;16.20;99.90;;;;;;10319467;28;20615;-61
2022/09/15 02:01:31;;;;;;;9.85;2.67;;;16.20;99.90;;;;;;10327532;28;20136;-60
2022/09/15 02:06:50;;;;;;;15.82;3.03;;;16.10;99.90;;;;;;10351824;28;20062;-61
2022/09/15 02:12:05;;;;;;;13.88;3.13;;;16.10;99.90;;;;;;10325276;28;20125;-59
2022/09/15 02:17:13;;;;;;;11.77;3.25;;;16.10;99.90;;;;;;10325856;28;20080;-60
2022/09/15 02:22:25;;;;;;;4.50;1.20;;;16.10;99.90;;;;;;10343991;28;20084;-58
2022/09/15 02:27:31;;;;;;;5.03;1.00;;;16.00;99.90;;;;;;10335279;28;20126;-60
2022/09/15 02:32:35;;;;;;;4.97;0.80;;;15.90;99.90;;;;;;10336769;28;20390;-60
2022/09/15 02:37:37;;;;;;;9.32;1.58;;;15.90;99.90;;;;;;10333582;28;20680;-61
2022/09/15 02:42:39;;;;;;;7.80;2.05;;;15.80;99.90;;;;;;10333408;28;20066;-59
2022/09/15 02:47:41;;;;;;;13.95;2.55;;;15.80;99.90;;;;;;10332948;28;20124;-59
2022/09/15 02:52:43;;;;;;;12.40;2.88;;;15.90;99.90;;;;;;10334693;28;20129;-60
2022/09/15 02:57:44;;;;;;;15.75;3.08;;;15.90;99.90;;;;;;10332499;28;20131;-59
2022/09/15 03:02:49;;;;;;;12.10;2.70;;;15.90;99.90;;;;;;10332454;28;20050;-59
2022/09/15 03:07:52;;;;;;;7.80;2.78;;;15.80;99.90;;;;;;10330903;28;20507;-60
2022/09/15 03:12:54;;;;;;;14.73;2.67;;;15.80;99.90;;;;;;10330015;28;20579;-59
2022/09/15 03:17:55;;;;;;;12.57;3.45;;;15.70;99.90;;;;;;10329348;28;20054;-59
2022/09/15 03:22:57;;;;;;;10.73;2.30;;;15.70;99.90;;;;;;10330577;28;20078;-60
2022/09/15 03:27:59;;;;;;;12.43;2.45;;;15.60;99.90;;;;;;10335599;28;20098;-59
2022/09/15 03:33:00;;;;;;;13.48;2.45;;;15.50;99.90;;;;;;10339381;28;20045;-60
2022/09/15 03:38:02;;;;;;;14.15;1.90;;;15.40;99.90;;;;;;10333535;28;20136;-59
2022/09/15 03:43:04;;;;;;;16.20;2.58;;;15.40;99.90;;;;;;10334353;28;20064;-59
2022/09/15 03:48:06;;;;;;;12.43;2.17;;;15.40;99.90;;;;;;10330670;28;20061;-60
2022/09/15 03:53:08;;;;;;;8.18;1.52;;;15.40;99.90;;;;;;10329915;28;20046;-59
2022/09/15 03:58:11;;;;;;;9.10;1.90;;;15.30;99.90;;;;;;10318051;28;20583;-59
2022/09/15 04:03:12;;;;;;;7.75;2.00;;;15.30;99.90;;;;;;10326880;28;20571;-59
2022/09/15 04:08:14;;;;;;;6.20;1.67;;;15.30;99.90;;;;;;10329681;28;20057;-60
2022/09/15 04:13:16;;;;;;;9.18;1.95;;;15.20;99.90;;;;;;10329281;28;20045;-60
2022/09/15 04:18:17;;;;;;;11.95;1.77;;;15.20;99.90;;;;;;10329952;28;20808;-60
2022/09/15 04:23:19;;;;;;;5.78;1.85;;;15.20;99.90;;;;;;10335352;28;20052;-59
2022/09/15 04:28:21;;;;;;;4.45;1.08;;;15.20;99.90;;;;;;10331135;28;20409;-59
2022/09/15 04:33:23;;;;;;;3.45;1.20;;;15.10;99.90;;;;;;10332688;28;20049;-61
2022/09/15 04:38:24;;;;;;;6.10;1.30;;;15.10;99.90;;;;;;10323509;28;20054;-59
2022/09/15 04:43:27;;;;;;;2.75;1.13;;;15.10;99.90;;;;;;10331273;28;20133;-60
2022/09/15 04:48:30;;;;;;;3.10;1.00;;;15.00;99.90;;;;;;10329101;28;20137;-59
2022/09/15 04:53:32;;;;;;;4.22;1.50;;;15.00;99.90;;;;;;10330218;28;20128;-60
2022/09/15 04:58:40;;;;;;;6.13;1.55;;;15.00;99.90;;;;;;10327835;28;20109;-60
2022/09/15 05:03:43;;;;;;;4.97;1.95;;;15.00;99.90;;;;;;10328929;28;20129;-60
2022/09/15 05:08:52;;;;;;;5.00;1.35;;;15.00;99.90;;;;;;10329844;28;20841;-62
2022/09/15 05:13:54;;;;;;;6.38;1.70;;;15.00;99.90;;;;;;10323803;28;20054;-63
2022/09/15 05:18:58;;;;;;;6.45;1.75;;;15.00;99.90;;;;;;10330188;28;20660;-60
2022/09/15 05:24:00;;;;;;;4.50;1.23;;;15.00;99.90;;;;;;10326756;28;20080;-60
2022/09/15 05:29:02;;;;;;;4.68;1.50;;;15.10;99.90;;;;;;10334842;28;20409;-60
2022/09/15 05:34:04;;;;;;;5.85;1.65;;;15.10;99.90;;;;;;10326194;28;20054;-65
2022/09/15 05:39:06;;;;;;;4.93;1.67;;;15.20;99.90;;;;;;10342595;28;20120;-67
2022/09/15 05:44:09;;;;;;;2.20;0.90;;;15.20;99.90;;;;;;10330766;28;20164;-64
2022/09/15 05:49:10;;;;;;;10.73;1.55;;;15.10;99.90;;;;;;10325869;28;20492;-65
2022/09/15 05:54:12;;;;;;;3.25;1.00;;;15.10;99.90;;;;;;10346387;28;20061;-64
2022/09/15 05:59:14;;;;;;;1.73;0.95;;;15.00;99.90;;;;;;10327949;28;20050;-64
2022/09/15 06:04:16;;;;;;;4.25;0.93;;;15.00;99.90;;;;;;10328282;28;20140;-62
2022/09/15 06:09:18;;;;;;;5.45;1.10;;;14.90;99.90;;;;;;10327652;28;20066;-63
2022/09/15 06:14:20;;;;;;;2.67;1.23;;;14.90;99.90;;;;;;10325735;28;20042;-64
2022/09/15 06:19:21;;;;;;;2.00;1.00;;;14.90;99.90;;;;;;10345629;28;20074;-63
2022/09/15 06:24:23;;;;;;;9.20;1.23;;;14.90;99.90;;;;;;10326724;28;20568;-62
2022/09/15 06:29:25;;;;;;;4.63;1.30;;;14.80;99.90;;;;;;10325968;28;20046;-63
2022/09/15 06:34:27;;;;;;;2.15;0.90;;;14.80;99.90;;;;;;10333685;28;20049;-63
2022/09/15 06:39:29;;;;;;;2.65;0.88;;;14.80;99.90;;;;;;10334243;28;20065;-62
2022/09/15 06:44:31;;;;;;;2.85;1.02;;;14.80;99.90;;;;;;10328895;28;20078;-64
2022/09/15 06:49:32;;;;;;;3.25;1.00;;;14.70;99.90;;;;;;10339430;28;20127;-65
2022/09/15 06:54:34;;;;;;;8.63;1.33;;;14.70;99.90;;;;;;10339518;28;20104;-65
2022/09/15 06:59:36;;;;;;;2.50;1.13;;;14.70;99.90;;;;;;10332125;28;20133;-65
2022/09/15 07:04:37;;;;;;;5.82;1.13;;;14.90;99.90;;;;;;10328781;28;20117;-63
2022/09/15 07:09:39;;;;;;;2.80;0.98;;;14.90;99.90;;;;;;10340907;28;20143;-65
2022/09/15 07:14:42;;;;;;;4.00;0.95;;;14.90;99.90;;;;;;10338043;28;20045;-62
2022/09/15 07:19:44;;;;;;;3.33;0.90;;;15.00;99.90;;;;;;10330767;28;20046;-61
2022/09/15 07:24:49;;;;;;;1.88;0.80;;;15.10;99.90;;;;;;10329595;28;20097;-62
2022/09/15 07:29:50;;;;;;;3.03;0.85;;;15.10;99.90;;;;;;10333025;28;20065;-62
2022/09/15 07:34:52;;;;;;;4.30;0.50;;;15.10;99.90;;;;;;10326105;28;20047;-62
2022/09/15 07:39:59;;;;;;;7.07;1.80;;;15.10;99.90;;;;;;10327706;28;20129;-62
2022/09/15 07:45:00;;;;;;;0.88;0.40;;;15.20;99.90;;;;;;10332617;28;20046;-63
2022/09/15 07:50:04;;;;;;;3.95;0.73;;;15.20;99.90;;;;;;10330774;28;20049;-65
2022/09/15 07:55:07;;;;;;;3.65;0.75;;;15.30;99.90;;;;;;10327580;28;20031;-62
2022/09/15 08:00:09;;;;;;;3.00;0.70;;;15.40;99.90;;;;;;10329908;28;20053;-61
2022/09/15 08:05:11;;;;;;;3.17;0.75;;;15.50;99.90;;;;;;10321843;28;20061;-62
2022/09/15 08:10:12;;;;;;;4.07;0.65;;;15.60;99.90;;;;;;10329738;28;20046;-62
2022/09/15 08:15:14;;;;;;;1.48;0.50;;;15.60;99.90;;;;;;10331323;28;20121;-61
2022/09/15 08:20:16;;;;;;;3.90;0.50;;;15.80;99.90;;;;;;10341899;28;20152;-60
2022/09/15 08:25:18;;;;;;;2.50;0.60;;;15.90;99.90;;;;;;10333045;28;20108;-61
2022/09/15 08:30:20;;;;;;;1.15;0.40;;;16.00;99.90;;;;;;10324162;28;20081;-61
2022/09/15 08:35:21;;;;;;;3.33;0.70;;;16.10;99.90;;;;;;10334125;28;20523;-61
2022/09/15 08:40:32;;;;;;;3.85;0.30;;;16.30;99.90;;;;;;10330662;28;20052;-60
2022/09/15 08:45:51;;;;;;;0.75;0.30;;;16.30;99.90;;;;;;10319404;28;20046;-60
2022/09/15 08:50:56;;;;;;;3.50;0.40;;;16.20;99.90;;;;;;10323226;28;20050;-60
2022/09/15 08:56:04;;;;;;;2.53;0.35;;;16.20;99.90;;;;;;10340244;28;20070;-62
2022/09/15 09:01:10;;;;;;;1.83;0.60;;;16.20;99.90;;;;;;10327990;28;20074;-61
2022/09/15 09:06:17;;;;;;;2.97;0.50;;;16.30;99.90;;;;;;10326415;28;20065;-62
2022/09/15 09:11:37;;;;;;;0.60;0.40;;;16.40;99.90;;;;;;10323015;28;20508;-61
2022/09/15 09:17:07;;;;;;;6.75;1.15;;;16.60;99.90;;;;;;10319704;28;20123;-62
2022/09/15 09:22:14;;;;;;;6.43;0.60;;;16.70;99.90;;;;;;10324440;28;20129;-61
2022/09/15 09:27:21;;;;;;;4.55;0.73;;;16.70;99.90;;;;;;10327272;28;20052;-60
2022/09/15 09:32:31;;;;;;;1.80;0.50;;;16.80;99.90;;;;;;10326725;28;20137;-62
2022/09/15 09:37:32;;;;;;;1.48;0.80;;;16.70;99.90;;;;;;10320705;28;20058;-63
2022/09/15 09:42:36;;;;;;;6.60;1.02;;;16.90;99.90;;;;;;10330094;28;20078;-61
2022/09/15 09:47:39;;;;;;;4.00;0.73;;;17.10;99.90;;;;;;10322999;28;20096;-61
2022/09/15 09:52:41;;;;;;;1.70;0.90;;;17.30;99.90;;;;;;10329084;28;20127;-62
2022/09/15 09:57:42;;;;;;;4.20;1.13;;;17.70;99.90;;;;;;10336763;28;20134;-61
2022/09/15 10:02:47;;;;;;;3.72;1.35;;;17.80;99.90;;;;;;10334254;28;20133;-60
2022/09/15 10:07:49;;;;;;;2.03;1.10;;;18.00;99.90;;;;;;10346302;28;20065;-62
2022/09/15 10:12:55;;;;;;;4.93;1.42;;;18.10;99.90;;;;;;10335076;28;20054;-65
2022/09/15 10:17:57;;;;;;;2.42;1.15;;;18.00;99.90;;;;;;10333147;28;20041;-60
2022/09/15 10:23:22;;;;;;;10.32;1.85;;;17.90;99.90;;;;;;10324259;28;20137;-62
2022/09/15 10:28:26;;;;;;;2.50;0.90;;;18.10;99.90;;;;;;10336942;28;20111;-63
2022/09/15 10:33:30;;;;;;;5.32;1.40;;;18.50;99.90;;;;;;10332127;28;20168;-61
2022/09/15 10:38:45;;;;;;;3.65;1.42;;;18.90;99.90;;;;;;10326560;28;20118;-64
2022/09/15 10:44:19;;;;;;;4.45;1.65;;;19.00;99.90;;;;;;10331141;28;20042;-64
2022/09/15 10:49:30;;;;;;;3.40;0.80;;;18.70;99.90;;;;;;10332251;28;20056;-65
2022/09/15 10:55:01;;;;;;;6.35;1.20;;;19.00;99.90;;;;;;10334552;28;20050;-65
2022/09/15 11:00:05;;;;;;;3.95;1.40;;;19.20;99.90;;;;;;10332204;28;20152;-63
2022/09/15 11:05:33;;;;;;;2.65;1.23;;;19.00;99.90;;;;;;10339119;28;20133;-66
2022/09/15 11:10:46;;;;;;;5.07;1.75;;;18.70;99.90;;;;;;10330616;28;20077;-62
2022/09/15 11:15:58;;;;;;;3.45;1.80;;;18.50;99.90;;;;;;10337678;28;20167;-62
2022/09/15 11:21:05;;;;;;;5.78;1.50;;;18.30;99.90;;;;;;10322980;28;20064;-62
2022/09/15 11:26:17;;;;;;;4.32;2.15;;;18.20;99.90;;;;;;10313256;28;20196;-65
2022/09/15 11:31:26;;;;;;;4.55;2.10;;;18.10;99.90;;;;;;10334456;28;20137;-64
2022/09/15 11:36:40;;;;;;;6.10;2.25;;;18.20;99.90;;;;;;10335218;28;20053;-61
2022/09/15 11:41:55;;;;;;;7.05;1.70;;;18.30;99.90;;;;;;10336442;28;20077;-61
2022/09/15 11:47:09;;;;;;;4.47;1.45;;;18.60;99.90;;;;;;10331527;28;20452;-62
2022/09/15 11:52:43;;;;;;;1.75;1.15;;;18.80;99.90;;;;;;10323737;28;20046;-62
2022/09/15 11:58:12;;;;;;;3.03;1.13;;;19.20;99.90;;;;;;10325819;28;20133;-63
2022/09/15 12:03:29;;;;;;;3.75;1.10;;;19.20;99.90;;;;;;10324043;28;20049;-62
2022/09/15 12:08:49;;;;;;;5.63;1.55;;;19.40;99.90;;;;;;10334618;28;20076;-62
2022/09/15 12:13:52;;;;;;;2.90;1.10;;;19.90;99.90;;;;;;10334280;28;20069;-62
2022/09/15 12:19:14;;;;;;;2.35;0.70;;;20.50;99.90;;;;;;10335502;28;20057;-62
2022/09/15 12:24:32;;;;;;;1.65;0.88;;;20.30;99.90;;;;;;10335843;28;20060;-63
2022/09/15 12:29:38;;;;;;;1.80;0.60;;;20.00;99.90;;;;;;10329912;28;20124;-63
2022/09/15 12:34:56;;;;;;;2.67;0.80;;;20.00;99.90;;;;;;10335335;28;20054;-61
2022/09/15 12:39:58;;;;;;;1.10;0.60;;;19.90;99.90;;;;;;10335642;28;20088;-64
2022/09/15 12:45:03;;;;;;;3.08;0.63;;;19.80;99.90;;;;;;10333702;28;20175;-63
2022/09/15 12:50:25;;;;;;;1.45;0.50;;;19.50;99.90;;;;;;10347513;28;20069;-63
2022/09/15 12:55:33;;;;;;;1.48;0.52;;;19.50;99.90;;;;;;10332819;28;20077;-62
2022/09/15 13:00:36;;;;;;;1.92;0.57;;;19.50;99.90;;;;;;10326759;28;20085;-63
2022/09/15 13:06:09;;;;;;;2.08;0.60;;;19.60;99.90;;;;;;10326385;28;20050;-61
2022/09/15 13:11:24;;;;;;;1.88;0.70;;;19.80;99.90;;;;;;10331763;28;20045;-61
2022/09/15 13:16:33;;;;;;;1.75;0.50;;;20.00;99.90;;;;;;10329336;28;20081;-62
2022/09/15 13:21:38;;;;;;;4.18;0.77;;;20.00;99.90;;;;;;10330196;28;20133;-61
2022/09/15 13:26:43;;;;;;;2.20;1.00;;;20.00;99.90;;;;;;10333887;28;20078;-62
2022/09/15 13:32:08;;;;;;;4.35;1.00;;;19.90;99.90;;;;;;10336722;28;20133;-62
2022/09/15 13:37:37;;;;;;;1.60;0.70;;;19.80;99.90;;;;;;10338099;28;20088;-63
2022/09/15 13:43:16;;;;;;;1.83;0.68;;;19.50;99.90;;;;;;10335323;28;20132;-62
2022/09/15 13:48:27;;;;;;;1.50;0.68;;;19.50;99.90;;;;;;10333055;28;20069;-62
2022/09/15 13:53:49;;;;;;;2.45;0.90;;;19.50;99.90;;;;;;10330508;28;20081;-61
2022/09/15 13:58:52;;;;;;;2.03;0.77;;;19.50;99.90;;;;;;10336513;28;20129;-62
2022/09/15 14:04:15;;;;;;;4.50;0.80;;;19.30;99.90;;;;;;10340055;28;20061;-63
2022/09/15 14:09:25;;;;;;;3.70;0.90;;;19.20;99.90;;;;;;10340107;28;20042;-61
2022/09/15 14:14:27;;;;;;;2.20;0.75;;;19.20;99.90;;;;;;10326803;28;20479;-63
2022/09/15 14:19:32;;;;;;;2.95;0.90;;;19.20;99.90;;;;;;10336105;28;20427;-62
2022/09/15 14:24:39;;;;;;;3.37;0.80;;;19.40;99.90;;;;;;10335005;28;20059;-64
2022/09/15 14:29:42;;;;;;;1.02;0.70;;;19.30;99.90;;;;;;10332181;28;20056;-63
2022/09/15 14:34:44;;;;;;;2.38;0.57;;;19.30;99.90;;;;;;10332971;28;20078;-64
2022/09/15 14:39:52;;;;;;;2.10;0.75;;;19.30;99.90;;;;;;10339809;28;20055;-63
2022/09/15 14:44:55;;;;;;;5.85;0.77;;;19.60;99.90;;;;;;10328527;28;20057;-63
2022/09/15 14:50:20;;;;;;;2.35;0.70;;;19.90;99.90;;;;;;10330879;28;20058;-64
2022/09/15 14:55:30;;;;;;;2.15;0.55;;;20.40;99.90;;;;;;10334975;28;20057;-62
2022/09/15 15:00:38;;;;;;;1.30;0.75;;;20.70;99.90;;;;;;10333854;28;20042;-62
2022/09/15 15:05:45;;;;;;;1.98;0.73;;;20.30;99.90;;;;;;10344952;28;20393;-63
2022/09/15 15:10:47;;;;;;;2.47;0.70;;;20.60;99.90;;;;;;10333355;28;20057;-62
2022/09/15 15:15:49;;;;;;;9.48;0.80;;;20.30;99.90;;;;;;10329096;28;20088;-61
2022/09/15 15:20:51;;;;;;;3.75;0.68;;;20.40;99.90;;;;;;10334030;28;20058;-63
2022/09/15 15:26:13;;;;;;;5.13;0.60;;;20.30;99.90;;;;;;10336209;28;20061;-62
2022/09/15 15:31:23;;;;;;;0.93;0.70;;;20.50;99.90;;;;;;10329549;28;20050;-62
2022/09/15 15:36:27;;;;;;;1.20;0.90;;;20.40;99.90;;;;;;10328442;28;20049;-63
2022/09/15 15:41:37;;;;;;;0.80;0.60;;;20.20;99.90;;;;;;10330195;28;20038;-63
2022/09/15 15:46:58;;;;;;;2.30;0.90;;;19.70;99.90;;;;;;10335377;28;20087;-64
2022/09/15 15:52:00;;;;;;;1.17;0.70;;;;;;;;;;10333248;28;20098;-65
2022/09/15 15:57:21;;;;;;;0.95;0.50;;;19.20;99.90;;;;;;10332503;28;20088;-63
2022/09/15 16:02:24;;;;;;;0.65;0.60;;;19.10;99.90;;;;;;10329048;28;20165;-62
2022/09/15 16:07:28;;;;;;;2.63;0.70;;;18.90;99.90;;;;;;10336588;28;20074;-64
2022/09/15 16:12:34;;;;;;;0.95;0.60;;;18.70;99.90;;;;;;10332124;28;20050;-63
2022/09/15 16:17:36;;;;;;;3.50;0.80;;;18.80;99.90;;;;;;10313158;28;20124;-62
2022/09/15 16:22:39;;;;;;;2.35;0.63;;;18.80;99.90;;;;;;10332733;28;20049;-62
2022/09/15 16:27:41;;;;;;;0.95;0.63;;;18.70;99.90;;;;;;10325636;28;20488;-64
2022/09/15 16:32:42;;;;;;;1.58;0.70;;;18.60;99.90;;;;;;10337198;28;20050;-62
2022/09/15 16:37:44;;;;;;;1.60;0.70;;;18.50;99.90;;;;;;10328404;28;20100;-62
2022/09/15 16:42:47;;;;;;;2.40;1.08;;;18.40;99.90;;;;;;10331960;28;20435;-64
2022/09/15 16:47:49;;;;;;;5.55;0.98;;;18.40;99.90;;;;;;10332748;28;20394;-62
2022/09/15 16:52:51;;;;;;;2.35;0.60;;;18.40;99.90;;;;;;10330207;28;20451;-63
2022/09/15 16:57:53;;;;;;;4.03;0.80;;;18.30;99.90;;;;;;10328999;28;20129;-62
2022/09/15 17:02:55;;;;;;;1.38;0.60;;;18.20;99.90;;;;;;10324504;28;20141;-65
2022/09/15 17:07:57;;;;;;;5.28;0.65;;;18.20;99.90;;;;;;10330861;28;20073;-63
2022/09/15 17:13:00;;;;;;;4.65;0.73;;;18.10;99.90;;;;;;10326261;28;20141;-64
2022/09/15 17:18:03;;;;;;;6.90;0.70;;;18.10;99.90;;;;;;10346707;28;20129;-64
2022/09/15 17:23:17;;;;;;;1.52;0.70;;;18.00;99.90;;;;;;10328918;28;20141;-62
2022/09/15 17:28:21;;;;;;;4.25;0.57;;;18.00;99.90;;;;;;10326380;28;20050;-62
2022/09/15 17:33:24;;;;;;;4.40;0.70;;;18.00;99.90;;;;;;10332160;28;20104;-65
2022/09/15 17:38:26;;;;;;;4.50;0.70;;;18.00;99.90;;;;;;10326484;28;20580;-61
2022/09/15 17:43:29;;;;;;;2.85;0.75;;;18.00;99.90;;;;;;10324089;28;20066;-61
2022/09/15 17:48:31;;;;;;;1.70;0.70;;;18.00;99.90;;;;;;10325108;28;20100;-63
2022/09/15 17:53:33;;;;;;;1.05;0.70;;;17.90;99.90;;;;;;10322180;28;20129;-63
2022/09/15 17:58:34;;;;;;;7.38;0.75;;;17.80;99.90;;;;;;10323758;28;20161;-62
2022/09/15 18:03:37;;;;;;;2.75;0.70;;;17.80;99.90;;;;;;10328330;28;20053;-64
2022/09/15 18:08:38;;;;;;;2.35;0.63;;;17.70;99.90;;;;;;10325788;28;20653;-64
2022/09/15 18:13:40;;;;;;;2.75;0.73;;;17.70;99.90;;;;;;10332338;28;20515;-65
2022/09/15 18:18:42;;;;;;;5.70;0.60;;;17.60;99.90;;;;;;10340026;28;20073;-61
2022/09/15 18:23:44;;;;;;;1.55;0.50;;;17.50;99.90;;;;;;10332597;28;20073;-62
2022/09/15 18:28:45;;;;;;;3.47;0.57;;;17.50;99.90;;;;;;10336387;28;20073;-62
2022/09/15 18:33:47;;;;;;;2.75;0.57;;;17.40;99.90;;;;;;10333724;28;20140;-63
2022/09/15 18:38:49;;;;;;;4.72;0.50;;;17.10;99.90;;;;;;10334764;28;20133;-62
2022/09/15 18:43:50;;;;;;;4.68;0.50;;;17.00;99.90;;;;;;10332683;28;20058;-62
2022/09/15 18:48:52;;;;;;;0.52;0.52;;;17.00;99.90;;;;;;10335260;28;20125;-62
2022/09/15 18:53:53;;;;;;;2.63;0.45;;;16.90;99.90;;;;;;10339688;28;20069;-61
2022/09/15 18:58:55;;;;;;;1.40;0.50;;;16.80;99.90;;;;;;10332502;28;20128;-62
2022/09/15 19:03:57;;;;;;;0.52;0.38;;;16.70;99.90;;;;;;10329430;28;20050;-61
2022/09/15 19:08:59;;;;;;;3.40;0.50;;;16.70;99.90;;;;;;10335173;28;20073;-62
2022/09/15 19:14:01;;;;;;;2.92;0.40;;;16.60;99.90;;;;;;10329883;28;20072;-67
2022/09/15 19:19:02;;;;;;;1.80;0.50;;;16.60;99.90;;;;;;10347052;28;20054;-62
2022/09/15 19:24:04;;;;;;;3.75;0.50;;;16.60;99.90;;;;;;10341329;28;20500;-61
2022/09/15 19:29:06;;;;;;;2.22;0.40;;;16.50;99.90;;;;;;10336952;28;20046;-62
2022/09/15 19:34:08;;;;;;;0.55;0.20;;;16.50;99.90;;;;;;10331707;28;20043;-62
2022/09/15 19:39:11;;;;;;;1.67;0.40;;;16.50;99.90;;;;;;10332054;28;20145;-62
2022/09/15 19:44:14;;;;;;;2.97;0.35;;;16.50;99.90;;;;;;10328374;28;20061;-61
2022/09/15 19:49:16;;;;;;;4.40;0.40;;;16.50;99.90;;;;;;10327726;28;20457;-63
2022/09/15 19:54:18;;;;;;;2.47;0.60;;;16.40;99.90;;;;;;10334736;28;20066;-64
2022/09/15 19:59:20;;;;;;;1.35;0.40;;;16.40;99.90;;;;;;10329636;28;20050;-63
2022/09/15 20:04:21;;;;;;;1.10;0.28;;;16.40;99.90;;;;;;10328195;28;20080;-63
2022/09/15 20:09:23;;;;;;;2.97;0.30;;;16.30;99.90;;;;;;10325779;28;20134;-63
2022/09/15 20:14:25;;;;;;;0.57;0.30;;;16.20;99.90;;;;;;10329918;28;20046;-63
2022/09/15 20:19:27;;;;;;;1.23;0.30;;;16.20;99.90;;;;;;10334403;28;20125;-63
2022/09/15 20:24:29;;;;;;;4.07;0.40;;;16.10;99.90;;;;;;10327898;28;20124;-60
2022/09/15 20:29:32;;;;;;;1.85;0.38;;;16.10;99.90;;;;;;10331021;28;20108;-60
2022/09/15 20:34:34;;;;;;;1.92;0.30;;;16.10;99.90;;;;;;10347285;28;20763;-63
2022/09/15 20:39:35;;;;;;;5.55;0.40;;;16.00;99.90;;;;;;10330378;28;20130;-64
2022/09/15 20:44:37;;;;;;;1.85;0.30;;;16.00;99.90;;;;;;10331084;28;20046;-61
2022/09/15 20:49:39;;;;;;;2.35;0.25;;;15.90;99.90;;;;;;10331109;28;20133;-61
2022/09/15 20:54:40;;;;;;;1.58;0.32;;;15.80;99.90;;;;;;10334549;28;20451;-61
2022/09/15 20:59:42;;;;;;;2.38;0.30;;;15.80;99.90;;;;;;10328089;28;20064;-61
2022/09/15 21:04:44;;;;;;;1.98;0.30;;;15.70;99.90;;;;;;10333329;28;20055;-62
2022/09/15 21:09:45;;;;;;;1.23;0.40;;;15.70;99.90;;;;;;10327839;28;20116;-60
2022/09/15 21:14:47;;;;;;;0.90;0.30;;;15.60;99.90;;;;;;10326048;28;20057;-61
2022/09/15 21:19:49;;;;;;;3.22;0.35;;;15.50;99.90;;;;;;10326730;28;20057;-62
2022/09/15 21:24:50;;;;;;;2.50;0.40;;;15.60;99.90;;;;;;10329431;28;20723;-61
2022/09/15 21:29:52;;;;;;;1.58;0.25;;;15.60;99.90;;;;;;10326803;28;20497;-61
2022/09/15 21:34:54;;;;;;;7.00;0.40;;;15.60;99.90;;;;;;10328523;28;20137;-63
2022/09/15 21:39:56;;;;;;;3.95;0.30;;;15.60;99.90;;;;;;10328123;28;20093;-62
2022/09/15 21:44:58;;;;;;;1.70;0.40;;;15.60;99.90;;;;;;10325656;28;20057;-60
2022/09/15 21:50:01;;;;;;;1.27;0.20;;;15.60;99.90;;;;;;10341589;28;20054;-61
2022/09/15 21:55:03;;;;;;;0.77;0.20;;;15.60;99.90;;;;;;10341006;28;20049;-62
2022/09/15 22:00:05;;;;;;;1.63;0.30;;;15.60;99.90;;;;;;10329404;28;20140;-61
2022/09/15 22:05:07;;;;;;;1.38;0.30;;;15.60;99.90;;;;;;10332576;28;20125;-62
2022/09/15 22:10:08;;;;;;;2.00;0.30;;;15.60;99.90;;;;;;10334309;28;20508;-60
2022/09/15 22:15:11;;;;;;;2.90;0.38;;;15.60;99.90;;;;;;10335211;28;20145;-61
2022/09/15 22:20:12;;;;;;;2.92;0.30;;;15.60;99.90;;;;;;10324820;28;20058;-62
2022/09/15 22:25:14;;;;;;;0.70;0.20;;;15.50;99.90;;;;;;10329753;28;20050;-61
2022/09/15 22:30:22;;;;;;;1.55;0.40;;;15.50;99.90;;;;;;10332433;28;20101;-63
2022/09/15 22:35:24;;;;;;;4.32;0.50;;;15.50;99.90;;;;;;10326042;28;20380;-61
2022/09/15 22:40:25;;;;;;;2.00;0.50;;;15.40;99.90;;;;;;10327776;28;20129;-61
2022/09/15 22:45:27;;;;;;;0.77;0.20;;;15.40;99.90;;;;;;10330856;28;20046;-61
2022/09/15 22:50:29;;;;;;;0.63;0.32;;;15.40;99.90;;;;;;10333976;28;20049;-61
2022/09/15 22:55:31;;;;;;;3.55;0.30;;;15.40;99.90;;;;;;10333351;28;20140;-62
2022/09/15 23:00:33;;;;;;;0.57;0.30;;;15.30;99.90;;;;;;10335721;28;20054;-61
2022/09/15 23:05:35;;;;;;;0.73;0.38;;;15.40;99.90;;;;;;10333818;28;20045;-62
2022/09/15 23:10:36;;;;;;;2.72;0.20;;;15.30;99.90;;;;;;10333102;28;20045;-62
2022/09/15 23:15:38;;;;;;;1.42;0.40;;;15.30;99.90;;;;;;10338420;28;20137;-60
2022/09/15 23:20:41;;;;;;;1.90;0.35;;;15.30;99.90;;;;;;10331246;28;20050;-60
2022/09/15 23:25:43;;;;;;;1.75;0.20;;;15.30;99.90;;;;;;10331203;28;20042;-62
2022/09/15 23:30:45;;;;;;;3.22;0.38;;;15.20;99.90;;;;;;10331906;28;20054;-61
2022/09/15 23:35:47;;;;;;;1.58;0.17;;;15.20;99.90;;;;;;10332009;28;20074;-62
2022/09/15 23:40:49;;;;;;;0.52;0.20;;;15.20;99.90;;;;;;10348655;28;20096;-60
2022/09/15 23:45:52;;;;;;;1.45;0.20;;;15.20;99.90;;;;;;10337137;28;20108;-60
2022/09/15 23:50:54;;;;;;;1.75;0.20;;;15.10;99.90;;;;;;10333106;28;20385;-60
2022/09/15 23:55:55;;;;;;;0.22;0.13;;;15.10;99.90;;;;;;10330203;28;20048;-63
